sensor_id;sensor_type;location;lat;lon;timestamp;P1;durP1;ratioP1;P2;durP2;ratioP2
75441;SDS011;64019;48.312;14.226;2024-02-28T00:00:10;18.73;;;8.67;;
75441;SDS011;64019;48.312;14.226;2024-02-28T00:02:36;18.00;;;8.47;;
75441;SDS011;64019;48.312;14.226;2024-02-28T00:05:02;20.07;;;8.57;;
75441;SDS011;64019;48.312;14.226;2024-02-28T00:07:28;20.90;;;9.10;;
75441;SDS011;64019;48.312;14.226;2024-02-28T00:09:55;19.03;;;9.27;;
75441;SDS011;64019;48.312;14.226;2024-02-28T00:12:23;15.50;;;8.33;;
75441;SDS011;64019;48.312;14.226;2024-02-28T00:14:50;19.53;;;9.20;;
75441;SDS011;64019;48.312;14.226;2024-02-28T00:17:16;19.23;;;9.43;;
75441;SDS011;64019;48.312;14.226;2024-02-28T00:19:42;20.37;;;10.00;;
75441;SDS011;64019;48.312;14.226;2024-02-28T00:22:08;19.43;;;9.40;;
75441;SDS011;64019;48.312;14.226;2024-02-28T00:24:34;18.10;;;9.20;;
75441;SDS011;64019;48.312;14.226;2024-02-28T00:27:00;22.97;;;10.23;;
75441;SDS011;64019;48.312;14.226;2024-02-28T00:29:26;18.90;;;9.20;;
75441;SDS011;64019;48.312;14.226;2024-02-28T00:31:52;19.90;;;8.37;;
75441;SDS011;64019;48.312;14.226;2024-02-28T00:34:18;25.87;;;9.57;;
75441;SDS011;64019;48.312;14.226;2024-02-28T00:36:44;20.50;;;9.77;;
75441;SDS011;64019;48.312;14.226;2024-02-28T00:39:10;19.40;;;9.27;;
75441;SDS011;64019;48.312;14.226;2024-02-28T00:41:36;19.53;;;9.20;;
75441;SDS011;64019;48.312;14.226;2024-02-28T00:44:02;16.97;;;8.47;;
75441;SDS011;64019;48.312;14.226;2024-02-28T00:46:28;19.87;;;9.10;;
75441;SDS011;64019;48.312;14.226;2024-02-28T00:48:54;19.03;;;8.17;;
75441;SDS011;64019;48.312;14.226;2024-02-28T00:51:20;18.20;;;9.33;;
75441;SDS011;64019;48.312;14.226;2024-02-28T00:53:45;21.37;;;9.13;;
75441;SDS011;64019;48.312;14.226;2024-02-28T00:56:11;16.60;;;8.70;;
75441;SDS011;64019;48.312;14.226;2024-02-28T00:58:37;19.37;;;9.00;;
75441;SDS011;64019;48.312;14.226;2024-02-28T01:01:03;17.40;;;8.20;;
75441;SDS011;64019;48.312;14.226;2024-02-28T01:03:30;17.33;;;8.47;;
75441;SDS011;64019;48.312;14.226;2024-02-28T01:05:55;16.37;;;8.13;;
75441;SDS011;64019;48.312;14.226;2024-02-28T01:08:21;19.80;;;8.00;;
75441;SDS011;64019;48.312;14.226;2024-02-28T01:10:47;19.57;;;8.50;;
75441;SDS011;64019;48.312;14.226;2024-02-28T01:13:13;14.20;;;8.43;;
75441;SDS011;64019;48.312;14.226;2024-02-28T01:15:41;16.93;;;8.37;;
75441;SDS011;64019;48.312;14.226;2024-02-28T01:18:07;17.57;;;8.17;;
75441;SDS011;64019;48.312;14.226;2024-02-28T01:20:33;18.30;;;9.37;;
75441;SDS011;64019;48.312;14.226;2024-02-28T01:22:59;14.30;;;8.53;;
75441;SDS011;64019;48.312;14.226;2024-02-28T01:25:25;19.03;;;9.37;;
75441;SDS011;64019;48.312;14.226;2024-02-28T01:27:50;16.40;;;8.93;;
75441;SDS011;64019;48.312;14.226;2024-02-28T01:30:16;14.03;;;8.47;;
75441;SDS011;64019;48.312;14.226;2024-02-28T01:32:42;17.70;;;8.43;;
75441;SDS011;64019;48.312;14.226;2024-02-28T01:35:08;16.23;;;8.37;;
75441;SDS011;64019;48.312;14.226;2024-02-28T01:37:34;13.20;;;7.50;;
75441;SDS011;64019;48.312;14.226;2024-02-28T01:40:00;12.93;;;7.90;;
75441;SDS011;64019;48.312;14.226;2024-02-28T01:42:25;14.33;;;8.20;;
75441;SDS011;64019;48.312;14.226;2024-02-28T01:44:51;15.70;;;8.53;;
75441;SDS011;64019;48.312;14.226;2024-02-28T01:47:17;20.67;;;9.00;;
75441;SDS011;64019;48.312;14.226;2024-02-28T01:49:43;18.77;;;9.27;;
75441;SDS011;64019;48.312;14.226;2024-02-28T01:52:12;18.03;;;9.37;;
75441;SDS011;64019;48.312;14.226;2024-02-28T01:54:38;23.90;;;9.83;;
75441;SDS011;64019;48.312;14.226;2024-02-28T01:57:05;19.23;;;9.63;;
75441;SDS011;64019;48.312;14.226;2024-02-28T01:59:31;22.63;;;10.07;;
75441;SDS011;64019;48.312;14.226;2024-02-28T02:01:59;25.47;;;9.90;;
75441;SDS011;64019;48.312;14.226;2024-02-28T02:04:25;18.13;;;8.80;;
75441;SDS011;64019;48.312;14.226;2024-02-28T02:06:50;20.97;;;9.53;;
75441;SDS011;64019;48.312;14.226;2024-02-28T02:09:19;18.73;;;9.20;;
75441;SDS011;64019;48.312;14.226;2024-02-28T02:11:45;18.57;;;8.67;;
75441;SDS011;64019;48.312;14.226;2024-02-28T02:14:10;23.27;;;10.90;;
75441;SDS011;64019;48.312;14.226;2024-02-28T02:16:36;23.30;;;9.43;;
75441;SDS011;64019;48.312;14.226;2024-02-28T02:19:02;21.00;;;9.87;;
75441;SDS011;64019;48.312;14.226;2024-02-28T02:21:34;20.47;;;9.47;;
75441;SDS011;64019;48.312;14.226;2024-02-28T02:24:03;17.30;;;9.63;;
75441;SDS011;64019;48.312;14.226;2024-02-28T02:26:29;18.80;;;9.17;;
75441;SDS011;64019;48.312;14.226;2024-02-28T02:28:54;26.27;;;10.73;;
75441;SDS011;64019;48.312;14.226;2024-02-28T02:31:20;17.03;;;9.17;;
75441;SDS011;64019;48.312;14.226;2024-02-28T02:33:46;22.17;;;9.47;;
75441;SDS011;64019;48.312;14.226;2024-02-28T02:36:11;18.23;;;9.77;;
75441;SDS011;64019;48.312;14.226;2024-02-28T02:38:37;18.40;;;9.63;;
75441;SDS011;64019;48.312;14.226;2024-02-28T02:41:03;17.73;;;9.17;;
75441;SDS011;64019;48.312;14.226;2024-02-28T02:43:28;19.23;;;10.23;;
75441;SDS011;64019;48.312;14.226;2024-02-28T02:45:54;18.90;;;10.07;;
75441;SDS011;64019;48.312;14.226;2024-02-28T02:48:20;19.33;;;9.97;;
75441;SDS011;64019;48.312;14.226;2024-02-28T02:50:46;22.20;;;10.27;;
75441;SDS011;64019;48.312;14.226;2024-02-28T02:53:11;20.37;;;10.13;;
75441;SDS011;64019;48.312;14.226;2024-02-28T02:55:38;22.80;;;10.83;;
75441;SDS011;64019;48.312;14.226;2024-02-28T02:58:03;18.43;;;9.93;;
75441;SDS011;64019;48.312;14.226;2024-02-28T03:00:29;26.43;;;11.97;;
75441;SDS011;64019;48.312;14.226;2024-02-28T03:02:55;23.90;;;10.70;;
75441;SDS011;64019;48.312;14.226;2024-02-28T03:05:21;23.67;;;11.77;;
75441;SDS011;64019;48.312;14.226;2024-02-28T03:07:47;25.20;;;10.67;;
75441;SDS011;64019;48.312;14.226;2024-02-28T03:10:13;20.37;;;10.77;;
75441;SDS011;64019;48.312;14.226;2024-02-28T03:12:38;25.27;;;11.10;;
75441;SDS011;64019;48.312;14.226;2024-02-28T03:15:05;20.57;;;10.50;;
75441;SDS011;64019;48.312;14.226;2024-02-28T03:17:30;26.27;;;11.60;;
75441;SDS011;64019;48.312;14.226;2024-02-28T03:19:56;22.47;;;11.73;;
75441;SDS011;64019;48.312;14.226;2024-02-28T03:22:22;21.60;;;10.53;;
75441;SDS011;64019;48.312;14.226;2024-02-28T03:24:48;19.47;;;9.63;;
75441;SDS011;64019;48.312;14.226;2024-02-28T03:27:13;21.13;;;11.13;;
75441;SDS011;64019;48.312;14.226;2024-02-28T03:29:40;20.07;;;10.37;;
75441;SDS011;64019;48.312;14.226;2024-02-28T03:32:05;19.80;;;9.77;;
75441;SDS011;64019;48.312;14.226;2024-02-28T03:34:31;20.83;;;10.07;;
75441;SDS011;64019;48.312;14.226;2024-02-28T03:36:57;18.03;;;9.83;;
75441;SDS011;64019;48.312;14.226;2024-02-28T03:39:23;22.60;;;10.40;;
75441;SDS011;64019;48.312;14.226;2024-02-28T03:41:49;21.67;;;10.10;;
75441;SDS011;64019;48.312;14.226;2024-02-28T03:44:15;26.07;;;11.33;;
75441;SDS011;64019;48.312;14.226;2024-02-28T03:46:40;24.63;;;10.60;;
75441;SDS011;64019;48.312;14.226;2024-02-28T03:49:06;20.53;;;9.90;;
75441;SDS011;64019;48.312;14.226;2024-02-28T03:51:32;24.63;;;11.23;;
75441;SDS011;64019;48.312;14.226;2024-02-28T03:54:04;21.80;;;10.90;;
75441;SDS011;64019;48.312;14.226;2024-02-28T03:56:30;29.07;;;10.83;;
75441;SDS011;64019;48.312;14.226;2024-02-28T03:58:56;22.30;;;10.63;;
75441;SDS011;64019;48.312;14.226;2024-02-28T04:01:21;20.33;;;10.57;;
75441;SDS011;64019;48.312;14.226;2024-02-28T04:03:47;22.40;;;10.50;;
75441;SDS011;64019;48.312;14.226;2024-02-28T04:06:13;28.33;;;11.57;;
75441;SDS011;64019;48.312;14.226;2024-02-28T04:08:40;25.93;;;10.90;;
75441;SDS011;64019;48.312;14.226;2024-02-28T04:11:07;23.97;;;10.60;;
75441;SDS011;64019;48.312;14.226;2024-02-28T04:13:32;21.03;;;11.43;;
75441;SDS011;64019;48.312;14.226;2024-02-28T04:15:58;22.37;;;12.17;;
75441;SDS011;64019;48.312;14.226;2024-02-28T04:18:24;23.77;;;11.37;;
75441;SDS011;64019;48.312;14.226;2024-02-28T04:20:50;23.67;;;10.67;;
75441;SDS011;64019;48.312;14.226;2024-02-28T04:23:15;21.93;;;11.43;;
75441;SDS011;64019;48.312;14.226;2024-02-28T04:25:42;32.77;;;11.73;;
75441;SDS011;64019;48.312;14.226;2024-02-28T04:28:07;22.67;;;10.07;;
75441;SDS011;64019;48.312;14.226;2024-02-28T04:30:36;25.27;;;11.30;;
75441;SDS011;64019;48.312;14.226;2024-02-28T04:33:02;26.10;;;11.93;;
75441;SDS011;64019;48.312;14.226;2024-02-28T04:35:27;28.43;;;12.33;;
75441;SDS011;64019;48.312;14.226;2024-02-28T04:37:53;29.07;;;12.37;;
75441;SDS011;64019;48.312;14.226;2024-02-28T04:40:19;21.97;;;11.67;;
75441;SDS011;64019;48.312;14.226;2024-02-28T04:42:44;27.30;;;11.20;;
75441;SDS011;64019;48.312;14.226;2024-02-28T04:45:10;21.77;;;10.80;;
75441;SDS011;64019;48.312;14.226;2024-02-28T04:47:36;27.23;;;10.93;;
75441;SDS011;64019;48.312;14.226;2024-02-28T04:50:03;25.90;;;11.20;;
75441;SDS011;64019;48.312;14.226;2024-02-28T04:52:33;23.47;;;11.37;;
75441;SDS011;64019;48.312;14.226;2024-02-28T04:54:59;23.63;;;10.50;;
75441;SDS011;64019;48.312;14.226;2024-02-28T04:57:25;25.87;;;11.70;;
75441;SDS011;64019;48.312;14.226;2024-02-28T04:59:51;23.73;;;11.50;;
75441;SDS011;64019;48.312;14.226;2024-02-28T05:02:17;26.53;;;11.80;;
75441;SDS011;64019;48.312;14.226;2024-02-28T05:04:43;23.70;;;11.80;;
75441;SDS011;64019;48.312;14.226;2024-02-28T05:07:10;26.77;;;11.63;;
75441;SDS011;64019;48.312;14.226;2024-02-28T05:09:36;19.13;;;9.77;;
75441;SDS011;64019;48.312;14.226;2024-02-28T05:12:02;19.47;;;10.23;;
75441;SDS011;64019;48.312;14.226;2024-02-28T05:14:27;25.67;;;11.00;;
75441;SDS011;64019;48.312;14.226;2024-02-28T05:16:53;24.73;;;11.13;;
75441;SDS011;64019;48.312;14.226;2024-02-28T05:19:19;20.90;;;12.03;;
75441;SDS011;64019;48.312;14.226;2024-02-28T05:21:45;25.63;;;11.87;;
75441;SDS011;64019;48.312;14.226;2024-02-28T05:24:11;25.53;;;12.20;;
75441;SDS011;64019;48.312;14.226;2024-02-28T05:26:37;22.50;;;11.33;;
75441;SDS011;64019;48.312;14.226;2024-02-28T05:29:04;23.03;;;11.00;;
75441;SDS011;64019;48.312;14.226;2024-02-28T05:31:30;25.87;;;11.93;;
75441;SDS011;64019;48.312;14.226;2024-02-28T05:33:57;27.57;;;11.73;;
75441;SDS011;64019;48.312;14.226;2024-02-28T05:36:24;27.90;;;11.87;;
75441;SDS011;64019;48.312;14.226;2024-02-28T05:38:55;21.73;;;11.90;;
75441;SDS011;64019;48.312;14.226;2024-02-28T05:41:22;24.73;;;10.67;;
75441;SDS011;64019;48.312;14.226;2024-02-28T05:43:48;21.90;;;11.73;;
75441;SDS011;64019;48.312;14.226;2024-02-28T05:46:15;25.27;;;12.00;;
75441;SDS011;64019;48.312;14.226;2024-02-28T05:48:42;23.00;;;11.77;;
75441;SDS011;64019;48.312;14.226;2024-02-28T05:51:09;23.47;;;12.10;;
75441;SDS011;64019;48.312;14.226;2024-02-28T05:53:36;19.93;;;11.53;;
75441;SDS011;64019;48.312;14.226;2024-02-28T05:56:03;24.30;;;11.60;;
75441;SDS011;64019;48.312;14.226;2024-02-28T05:58:45;23.07;;;12.00;;
75441;SDS011;64019;48.312;14.226;2024-02-28T06:01:12;20.57;;;11.17;;
75441;SDS011;64019;48.312;14.226;2024-02-28T06:03:40;25.07;;;12.20;;
75441;SDS011;64019;48.312;14.226;2024-02-28T06:06:06;25.10;;;11.63;;
75441;SDS011;64019;48.312;14.226;2024-02-28T06:08:35;23.00;;;10.97;;
75441;SDS011;64019;48.312;14.226;2024-02-28T06:11:03;25.87;;;11.80;;
75441;SDS011;64019;48.312;14.226;2024-02-28T06:13:30;23.23;;;12.20;;
75441;SDS011;64019;48.312;14.226;2024-02-28T06:15:56;25.60;;;12.03;;
75441;SDS011;64019;48.312;14.226;2024-02-28T06:18:22;24.40;;;10.90;;
75441;SDS011;64019;48.312;14.226;2024-02-28T06:20:58;23.00;;;11.03;;
75441;SDS011;64019;48.312;14.226;2024-02-28T06:23:25;21.77;;;11.37;;
75441;SDS011;64019;48.312;14.226;2024-02-28T06:25:50;25.13;;;11.57;;
75441;SDS011;64019;48.312;14.226;2024-02-28T06:28:16;21.33;;;10.07;;
75441;SDS011;64019;48.312;14.226;2024-02-28T06:30:43;20.90;;;11.07;;
75441;SDS011;64019;48.312;14.226;2024-02-28T06:33:12;24.97;;;11.27;;
75441;SDS011;64019;48.312;14.226;2024-02-28T06:35:38;26.00;;;11.30;;
75441;SDS011;64019;48.312;14.226;2024-02-28T06:38:04;27.00;;;11.70;;
75441;SDS011;64019;48.312;14.226;2024-02-28T06:40:30;22.80;;;10.70;;
75441;SDS011;64019;48.312;14.226;2024-02-28T06:42:56;21.57;;;11.27;;
75441;SDS011;64019;48.312;14.226;2024-02-28T06:45:22;21.63;;;11.40;;
75441;SDS011;64019;48.312;14.226;2024-02-28T06:47:47;22.97;;;11.33;;
75441;SDS011;64019;48.312;14.226;2024-02-28T06:50:13;23.87;;;12.10;;
75441;SDS011;64019;48.312;14.226;2024-02-28T06:52:39;26.47;;;11.03;;
75441;SDS011;64019;48.312;14.226;2024-02-28T06:55:06;27.33;;;12.10;;
75441;SDS011;64019;48.312;14.226;2024-02-28T06:57:39;25.67;;;11.57;;
75441;SDS011;64019;48.312;14.226;2024-02-28T07:00:06;26.03;;;11.30;;
75441;SDS011;64019;48.312;14.226;2024-02-28T07:02:34;25.53;;;11.30;;
75441;SDS011;64019;48.312;14.226;2024-02-28T07:05:00;23.73;;;11.97;;
75441;SDS011;64019;48.312;14.226;2024-02-28T07:07:26;22.63;;;10.77;;
75441;SDS011;64019;48.312;14.226;2024-02-28T07:09:52;24.90;;;11.83;;
75441;SDS011;64019;48.312;14.226;2024-02-28T07:12:18;24.60;;;11.50;;
75441;SDS011;64019;48.312;14.226;2024-02-28T07:14:44;23.07;;;11.33;;
75441;SDS011;64019;48.312;14.226;2024-02-28T07:17:09;29.67;;;13.20;;
75441;SDS011;64019;48.312;14.226;2024-02-28T07:19:35;25.10;;;12.67;;
75441;SDS011;64019;48.312;14.226;2024-02-28T07:22:01;25.37;;;12.30;;
75441;SDS011;64019;48.312;14.226;2024-02-28T07:24:27;24.37;;;11.87;;
75441;SDS011;64019;48.312;14.226;2024-02-28T07:26:53;28.20;;;12.07;;
75441;SDS011;64019;48.312;14.226;2024-02-28T07:29:19;29.73;;;13.10;;
75441;SDS011;64019;48.312;14.226;2024-02-28T07:31:44;23.80;;;12.17;;
75441;SDS011;64019;48.312;14.226;2024-02-28T07:34:10;28.03;;;11.87;;
75441;SDS011;64019;48.312;14.226;2024-02-28T07:36:36;26.60;;;12.17;;
75441;SDS011;64019;48.312;14.226;2024-02-28T07:39:02;26.93;;;12.63;;
75441;SDS011;64019;48.312;14.226;2024-02-28T07:41:28;25.67;;;12.17;;
75441;SDS011;64019;48.312;14.226;2024-02-28T07:43:54;24.77;;;11.87;;
75441;SDS011;64019;48.312;14.226;2024-02-28T07:46:20;27.70;;;11.83;;
75441;SDS011;64019;48.312;14.226;2024-02-28T07:48:45;25.73;;;11.53;;
75441;SDS011;64019;48.312;14.226;2024-02-28T07:51:11;23.13;;;11.30;;
75441;SDS011;64019;48.312;14.226;2024-02-28T07:53:37;27.93;;;11.47;;
75441;SDS011;64019;48.312;14.226;2024-02-28T07:56:03;28.33;;;11.97;;
75441;SDS011;64019;48.312;14.226;2024-02-28T07:58:29;23.30;;;11.83;;
75441;SDS011;64019;48.312;14.226;2024-02-28T08:00:54;23.87;;;11.77;;
75441;SDS011;64019;48.312;14.226;2024-02-28T08:03:20;24.47;;;12.43;;
75441;SDS011;64019;48.312;14.226;2024-02-28T08:05:46;23.13;;;11.53;;
75441;SDS011;64019;48.312;14.226;2024-02-28T08:08:13;23.63;;;12.50;;
75441;SDS011;64019;48.312;14.226;2024-02-28T08:10:39;24.43;;;12.27;;
75441;SDS011;64019;48.312;14.226;2024-02-28T08:13:05;26.13;;;11.80;;
75441;SDS011;64019;48.312;14.226;2024-02-28T08:15:31;29.73;;;12.27;;
75441;SDS011;64019;48.312;14.226;2024-02-28T08:17:57;18.57;;;10.73;;
75441;SDS011;64019;48.312;14.226;2024-02-28T08:20:23;24.77;;;11.10;;
75441;SDS011;64019;48.312;14.226;2024-02-28T08:22:49;25.47;;;12.27;;
75441;SDS011;64019;48.312;14.226;2024-02-28T08:25:17;23.93;;;11.80;;
75441;SDS011;64019;48.312;14.226;2024-02-28T08:27:43;29.40;;;12.07;;
75441;SDS011;64019;48.312;14.226;2024-02-28T08:30:09;25.90;;;12.50;;
75441;SDS011;64019;48.312;14.226;2024-02-28T08:32:35;22.17;;;11.17;;
75441;SDS011;64019;48.312;14.226;2024-02-28T08:35:01;23.87;;;11.57;;
75441;SDS011;64019;48.312;14.226;2024-02-28T08:37:26;23.23;;;11.60;;
75441;SDS011;64019;48.312;14.226;2024-02-28T08:39:55;22.97;;;12.30;;
75441;SDS011;64019;48.312;14.226;2024-02-28T08:42:26;22.77;;;12.43;;
75441;SDS011;64019;48.312;14.226;2024-02-28T08:44:53;26.17;;;12.40;;
75441;SDS011;64019;48.312;14.226;2024-02-28T08:47:22;26.40;;;12.57;;
75441;SDS011;64019;48.312;14.226;2024-02-28T08:49:52;25.73;;;12.50;;
75441;SDS011;64019;48.312;14.226;2024-02-28T08:52:18;23.13;;;12.23;;
75441;SDS011;64019;48.312;14.226;2024-02-28T08:54:45;27.90;;;12.70;;
75441;SDS011;64019;48.312;14.226;2024-02-28T08:57:11;26.13;;;12.13;;
75441;SDS011;64019;48.312;14.226;2024-02-28T08:59:38;21.47;;;11.30;;
75441;SDS011;64019;48.312;14.226;2024-02-28T09:02:05;28.57;;;13.30;;
75441;SDS011;64019;48.312;14.226;2024-02-28T09:04:31;27.07;;;13.10;;
75441;SDS011;64019;48.312;14.226;2024-02-28T09:06:57;27.83;;;13.33;;
75441;SDS011;64019;48.312;14.226;2024-02-28T09:09:22;27.00;;;13.70;;
75441;SDS011;64019;48.312;14.226;2024-02-28T09:11:48;25.00;;;12.97;;
75441;SDS011;64019;48.312;14.226;2024-02-28T09:14:14;29.63;;;13.50;;
75441;SDS011;64019;48.312;14.226;2024-02-28T09:16:39;27.57;;;12.93;;
75441;SDS011;64019;48.312;14.226;2024-02-28T09:19:05;32.80;;;13.60;;
75441;SDS011;64019;48.312;14.226;2024-02-28T09:21:31;30.70;;;13.63;;
75441;SDS011;64019;48.312;14.226;2024-02-28T09:23:57;26.50;;;13.77;;
75441;SDS011;64019;48.312;14.226;2024-02-28T09:26:23;36.77;;;16.03;;
75441;SDS011;64019;48.312;14.226;2024-02-28T09:28:49;32.43;;;13.70;;
75441;SDS011;64019;48.312;14.226;2024-02-28T09:31:14;33.03;;;15.60;;
75441;SDS011;64019;48.312;14.226;2024-02-28T09:33:43;30.63;;;15.10;;
75441;SDS011;64019;48.312;14.226;2024-02-28T09:36:10;28.90;;;14.30;;
75441;SDS011;64019;48.312;14.226;2024-02-28T09:38:36;29.37;;;14.77;;
75441;SDS011;64019;48.312;14.226;2024-02-28T09:41:02;31.67;;;13.77;;
75441;SDS011;64019;48.312;14.226;2024-02-28T09:43:30;32.13;;;14.27;;
75441;SDS011;64019;48.312;14.226;2024-02-28T09:46:01;34.50;;;14.70;;
75441;SDS011;64019;48.312;14.226;2024-02-28T09:48:32;31.20;;;13.60;;
75441;SDS011;64019;48.312;14.226;2024-02-28T09:50:59;31.70;;;15.07;;
75441;SDS011;64019;48.312;14.226;2024-02-28T09:53:26;32.40;;;14.70;;
75441;SDS011;64019;48.312;14.226;2024-02-28T09:55:52;29.87;;;13.90;;
75441;SDS011;64019;48.312;14.226;2024-02-28T09:58:18;31.47;;;14.37;;
75441;SDS011;64019;48.312;14.226;2024-02-28T10:00:47;36.17;;;15.93;;
75441;SDS011;64019;48.312;14.226;2024-02-28T10:03:16;36.23;;;14.80;;
75441;SDS011;64019;48.312;14.226;2024-02-28T10:05:46;30.00;;;15.37;;
75441;SDS011;64019;48.312;14.226;2024-02-28T10:08:12;35.30;;;15.03;;
75441;SDS011;64019;48.312;14.226;2024-02-28T10:10:44;36.13;;;15.83;;
75441;SDS011;64019;48.312;14.226;2024-02-28T10:13:12;35.10;;;15.03;;
75441;SDS011;64019;48.312;14.226;2024-02-28T10:15:37;43.60;;;17.00;;
75441;SDS011;64019;48.312;14.226;2024-02-28T10:18:03;42.47;;;17.67;;
75441;SDS011;64019;48.312;14.226;2024-02-28T10:20:32;38.90;;;16.43;;
75441;SDS011;64019;48.312;14.226;2024-02-28T10:22:58;37.93;;;17.60;;
75441;SDS011;64019;48.312;14.226;2024-02-28T10:25:24;33.40;;;14.57;;
75441;SDS011;64019;48.312;14.226;2024-02-28T10:27:51;34.37;;;16.13;;
75441;SDS011;64019;48.312;14.226;2024-02-28T10:30:18;46.47;;;17.80;;
75441;SDS011;64019;48.312;14.226;2024-02-28T10:32:48;38.47;;;16.23;;
75441;SDS011;64019;48.312;14.226;2024-02-28T10:35:15;41.57;;;16.70;;
75441;SDS011;64019;48.312;14.226;2024-02-28T10:37:44;38.43;;;17.07;;
75441;SDS011;64019;48.312;14.226;2024-02-28T10:40:11;40.00;;;16.93;;
75441;SDS011;64019;48.312;14.226;2024-02-28T10:42:39;36.17;;;15.80;;
75441;SDS011;64019;48.312;14.226;2024-02-28T10:45:09;41.67;;;17.20;;
75441;SDS011;64019;48.312;14.226;2024-02-28T10:47:40;41.60;;;16.33;;
75441;SDS011;64019;48.312;14.226;2024-02-28T10:50:06;38.40;;;15.63;;
75441;SDS011;64019;48.312;14.226;2024-02-28T10:52:33;37.70;;;15.10;;
75441;SDS011;64019;48.312;14.226;2024-02-28T10:54:59;36.20;;;15.23;;
75441;SDS011;64019;48.312;14.226;2024-02-28T10:57:27;45.80;;;17.13;;
75441;SDS011;64019;48.312;14.226;2024-02-28T10:59:55;33.43;;;15.03;;
75441;SDS011;64019;48.312;14.226;2024-02-28T11:02:23;33.27;;;15.47;;
75441;SDS011;64019;48.312;14.226;2024-02-28T11:04:51;35.63;;;17.07;;
75441;SDS011;64019;48.312;14.226;2024-02-28T11:07:21;42.10;;;15.90;;
75441;SDS011;64019;48.312;14.226;2024-02-28T11:09:47;40.57;;;16.63;;
75441;SDS011;64019;48.312;14.226;2024-02-28T11:12:28;37.93;;;16.73;;
75441;SDS011;64019;48.312;14.226;2024-02-28T11:14:58;32.87;;;15.93;;
75441;SDS011;64019;48.312;14.226;2024-02-28T11:17:31;37.57;;;16.77;;
75441;SDS011;64019;48.312;14.226;2024-02-28T11:19:58;36.97;;;16.10;;
75441;SDS011;64019;48.312;14.226;2024-02-28T11:22:27;39.67;;;16.07;;
75441;SDS011;64019;48.312;14.226;2024-02-28T11:24:53;42.20;;;17.17;;
75441;SDS011;64019;48.312;14.226;2024-02-28T11:27:20;38.00;;;16.23;;
75441;SDS011;64019;48.312;14.226;2024-02-28T11:29:46;38.93;;;16.27;;
75441;SDS011;64019;48.312;14.226;2024-02-28T11:32:13;36.47;;;15.60;;
75441;SDS011;64019;48.312;14.226;2024-02-28T11:34:39;35.67;;;15.93;;
75441;SDS011;64019;48.312;14.226;2024-02-28T11:37:05;35.07;;;16.20;;
75441;SDS011;64019;48.312;14.226;2024-02-28T11:39:33;35.90;;;17.07;;
75441;SDS011;64019;48.312;14.226;2024-02-28T11:42:12;38.63;;;16.77;;
75441;SDS011;64019;48.312;14.226;2024-02-28T11:44:40;39.43;;;16.03;;
75441;SDS011;64019;48.312;14.226;2024-02-28T11:47:10;35.77;;;16.33;;
75441;SDS011;64019;48.312;14.226;2024-02-28T11:49:38;29.50;;;14.73;;
75441;SDS011;64019;48.312;14.226;2024-02-28T11:52:04;33.27;;;15.67;;
75441;SDS011;64019;48.312;14.226;2024-02-28T11:54:30;41.73;;;17.77;;
75441;SDS011;64019;48.312;14.226;2024-02-28T11:56:56;41.73;;;16.87;;
75441;SDS011;64019;48.312;14.226;2024-02-28T11:59:23;36.50;;;15.87;;
75441;SDS011;64019;48.312;14.226;2024-02-28T12:01:48;34.30;;;16.43;;
75441;SDS011;64019;48.312;14.226;2024-02-28T12:04:15;38.13;;;16.20;;
75441;SDS011;64019;48.312;14.226;2024-02-28T12:06:42;38.63;;;16.17;;
75441;SDS011;64019;48.312;14.226;2024-02-28T12:09:09;39.70;;;16.83;;
75441;SDS011;64019;48.312;14.226;2024-02-28T12:11:37;35.23;;;15.63;;
75441;SDS011;64019;48.312;14.226;2024-02-28T12:14:03;39.63;;;16.50;;
75441;SDS011;64019;48.312;14.226;2024-02-28T12:16:34;43.60;;;18.43;;
75441;SDS011;64019;48.312;14.226;2024-02-28T12:19:10;39.37;;;16.03;;
75441;SDS011;64019;48.312;14.226;2024-02-28T12:21:39;34.83;;;15.03;;
75441;SDS011;64019;48.312;14.226;2024-02-28T12:24:09;42.80;;;16.70;;
75441;SDS011;64019;48.312;14.226;2024-02-28T12:26:36;38.80;;;16.37;;
75441;SDS011;64019;48.312;14.226;2024-02-28T12:29:04;36.43;;;16.33;;
75441;SDS011;64019;48.312;14.226;2024-02-28T12:31:30;32.23;;;14.43;;
75441;SDS011;64019;48.312;14.226;2024-02-28T12:33:56;36.97;;;16.17;;
75441;SDS011;64019;48.312;14.226;2024-02-28T12:36:22;38.77;;;17.43;;
75441;SDS011;64019;48.312;14.226;2024-02-28T12:38:48;41.97;;;17.33;;
75441;SDS011;64019;48.312;14.226;2024-02-28T12:41:13;40.00;;;17.57;;
75441;SDS011;64019;48.312;14.226;2024-02-28T12:43:40;33.90;;;16.37;;
75441;SDS011;64019;48.312;14.226;2024-02-28T12:46:06;40.70;;;17.03;;
75441;SDS011;64019;48.312;14.226;2024-02-28T12:48:38;43.40;;;16.30;;
75441;SDS011;64019;48.312;14.226;2024-02-28T12:51:06;42.10;;;16.87;;
75441;SDS011;64019;48.312;14.226;2024-02-28T12:53:35;41.10;;;17.03;;
75441;SDS011;64019;48.312;14.226;2024-02-28T12:56:00;37.93;;;16.73;;
75441;SDS011;64019;48.312;14.226;2024-02-28T12:58:26;37.83;;;15.17;;
75441;SDS011;64019;48.312;14.226;2024-02-28T13:00:52;38.63;;;15.03;;
75441;SDS011;64019;48.312;14.226;2024-02-28T13:03:18;40.77;;;17.20;;
75441;SDS011;64019;48.312;14.226;2024-02-28T13:05:44;38.60;;;16.97;;
75441;SDS011;64019;48.312;14.226;2024-02-28T13:08:10;43.47;;;16.57;;
75441;SDS011;64019;48.312;14.226;2024-02-28T13:10:35;38.60;;;16.17;;
75441;SDS011;64019;48.312;14.226;2024-02-28T13:13:06;37.57;;;15.43;;
75441;SDS011;64019;48.312;14.226;2024-02-28T13:15:32;38.67;;;15.83;;
75441;SDS011;64019;48.312;14.226;2024-02-28T13:17:59;43.27;;;15.30;;
75441;SDS011;64019;48.312;14.226;2024-02-28T13:20:26;45.57;;;16.80;;
75441;SDS011;64019;48.312;14.226;2024-02-28T13:22:52;41.33;;;15.80;;
75441;SDS011;64019;48.312;14.226;2024-02-28T13:25:18;39.80;;;15.77;;
75441;SDS011;64019;48.312;14.226;2024-02-28T13:27:45;36.50;;;15.20;;
75441;SDS011;64019;48.312;14.226;2024-02-28T13:30:11;39.43;;;15.60;;
75441;SDS011;64019;48.312;14.226;2024-02-28T13:32:38;41.03;;;16.60;;
75441;SDS011;64019;48.312;14.226;2024-02-28T13:35:04;41.83;;;17.93;;
75441;SDS011;64019;48.312;14.226;2024-02-28T13:37:30;38.27;;;15.07;;
75441;SDS011;64019;48.312;14.226;2024-02-28T13:39:58;44.30;;;17.57;;
75441;SDS011;64019;48.312;14.226;2024-02-28T13:42:23;42.73;;;15.73;;
75441;SDS011;64019;48.312;14.226;2024-02-28T13:44:49;39.20;;;16.77;;
75441;SDS011;64019;48.312;14.226;2024-02-28T13:47:16;40.80;;;17.17;;
75441;SDS011;64019;48.312;14.226;2024-02-28T13:49:41;38.50;;;15.20;;
75441;SDS011;64019;48.312;14.226;2024-02-28T13:52:07;44.37;;;15.80;;
75441;SDS011;64019;48.312;14.226;2024-02-28T13:54:33;40.83;;;16.33;;
75441;SDS011;64019;48.312;14.226;2024-02-28T13:57:00;35.83;;;16.73;;
75441;SDS011;64019;48.312;14.226;2024-02-28T13:59:26;44.07;;;17.90;;
75441;SDS011;64019;48.312;14.226;2024-02-28T14:01:52;37.90;;;16.00;;
75441;SDS011;64019;48.312;14.226;2024-02-28T14:04:18;41.77;;;16.57;;
75441;SDS011;64019;48.312;14.226;2024-02-28T14:06:44;37.83;;;15.67;;